Time;durP1;ratioP1;P1;durP2;ratioP2;P2;SDS_P1;SDS_P2;PMS_P1;PMS_P2;Temp;Humidity;BMP_temperature;BMP_pressure;BME280_temperature;BME280_humidity;BME280_pressure;Samples;Min_cycle;Max_cycle;Signal;HPM_P1;HPM_P2
2022/07/18 00:01:35;;;;;;;5.32;2.08;;;;;;;-148.88;58.77;76012.84;5032991;28;20364;-83
2022/07/18 00:04:00;;;;;;;5.10;2.20;;;;;;;-148.88;58.90;76023.00;5032351;28;20052;-83
2022/07/18 00:06:26;;;;;;;4.60;1.95;;;;;;;-148.88;58.10;76012.84;5033059;28;20026;-83
2022/07/18 00:08:51;;;;;;;7.03;1.98;;;;;;;-148.88;57.48;76016.91;5032519;28;20070;-85
2022/07/18 00:11:16;;;;;;;5.68;2.30;;;;;;;-148.88;57.95;76023.00;5032431;28;20052;-85
2022/07/18 00:13:42;;;;;;;6.22;2.17;;;;;;;-148.88;58.14;76023.00;5032455;28;20021;-85
2022/07/18 00:16:07;;;;;;;2.92;1.80;;;;;;;-148.88;58.27;76014.88;5032494;28;20040;-85
2022/07/18 00:18:32;;;;;;;3.95;1.85;;;;;;;-148.88;58.27;76016.91;5031412;28;20108;-85
2022/07/18 00:20:58;;;;;;;4.63;1.92;;;;;;;-148.88;58.21;76020.97;5032717;28;20395;-85
2022/07/18 00:23:23;;;;;;;5.45;2.17;;;;;;;-148.88;58.62;76027.06;5031441;28;20464;-85
2022/07/18 00:25:48;;;;;;;5.00;2.28;;;;;;;-148.88;58.22;76023.00;5031249;28;20017;-85
2022/07/18 00:28:14;;;;;;;6.15;2.10;;;;;;;-148.88;58.04;76020.97;5032462;28;20459;-85
2022/07/18 00:30:40;;;;;;;6.82;2.60;;;;;;;-148.88;58.34;76023.00;5032546;28;20018;-85
2022/07/18 00:33:06;;;;;;;4.10;2.08;;;;;;;-148.88;58.30;76020.97;5036348;28;20029;-85
2022/07/18 00:35:31;;;;;;;5.70;2.28;;;;;;;-148.88;58.01;76025.03;5036322;28;20023;-85
2022/07/18 00:37:56;;;;;;;5.22;2.40;;;;;;;-148.88;57.79;76020.97;5036224;28;20051;-85
2022/07/18 00:40:22;;;;;;;3.72;2.15;;;;;;;-148.88;57.58;76025.03;5036168;28;20112;-85
2022/07/18 00:42:47;;;;;;;5.13;2.03;;;;;;;-148.88;57.24;76012.84;5036284;28;20457;-86
2022/07/18 00:45:13;;;;;;;4.47;1.92;;;;;;;-148.88;57.56;76012.84;5036041;28;20022;-85
2022/07/18 00:47:39;;;;;;;4.78;1.80;;;;;;;-148.88;57.10;76014.88;5036168;28;20072;-85
2022/07/18 00:50:07;;;;;;;4.57;1.75;;;;;;;-148.88;56.67;76020.97;5035993;28;20033;-85
2022/07/18 00:52:33;;;;;;;4.38;1.90;;;;;;;-148.88;56.79;76020.97;5035941;28;20021;-85
2022/07/18 00:54:58;;;;;;;4.55;1.77;;;;;;;-148.88;56.47;76012.84;5035751;28;20037;-85
2022/07/18 00:57:24;;;;;;;3.65;1.75;;;;;;;-148.88;56.56;76012.84;5034908;28;20028;-85
2022/07/18 01:02:33;;;;;;;;;;;;;;;-148.88;56.77;76016.91;5036490;28;20028;-85
2022/07/18 01:04:58;;;;;;;6.47;2.10;;;;;;;-148.88;56.71;76020.97;5035636;28;19909;-82
2022/07/18 01:07:23;;;;;;;5.68;2.42;;;;;;;-148.88;56.73;76027.06;5036024;28;20031;-83
2022/07/18 01:09:49;;;;;;;5.93;2.10;;;;;;;-148.88;57.02;76043.31;5035821;28;20021;-82
2022/07/18 01:12:14;;;;;;;4.78;2.03;;;;;;;-148.88;57.15;76041.28;5036126;28;20022;-82
2022/07/18 01:14:40;;;;;;;3.15;1.83;;;;;;;-148.88;57.10;76055.50;5034604;28;20021;-83
2022/07/18 01:17:16;;;;;;;4.05;1.90;;;;;;;-148.88;58.28;76090.03;5034365;28;20029;-82
2022/07/18 01:19:43;;;;;;;6.55;2.00;;;;;;;-148.88;58.40;76110.34;5035880;28;20464;-83
2022/07/18 01:22:08;;;;;;;5.68;2.33;;;;;;;-148.88;60.61;76153.03;5036151;28;20048;-85
2022/07/18 01:24:34;;;;;;;5.75;2.10;;;;;;;-148.88;60.86;76142.88;5035623;28;20406;-85
2022/07/18 01:26:59;;;;;;;4.07;1.98;;;;;;;-148.88;60.69;76122.56;5036172;28;20410;-85
2022/07/18 01:32:46;;;;;;;2.72;1.55;;;;;;;-148.88;60.23;76114.41;5035639;28;20523;-85
2022/07/18 01:35:11;;;;;;;4.72;2.00;;;;;;;-148.88;60.55;76110.34;5035205;28;20021;-85
2022/07/18 01:37:37;;;;;;;5.32;1.95;;;;;;;-148.88;60.64;76110.34;5035176;28;20065;-85
2022/07/18 01:40:09;;;;;;;3.60;1.60;;;;;;;-148.88;60.39;76122.56;5035243;28;20029;-82
2022/07/18 01:42:34;;;;;;;5.07;2.00;;;;;;;-148.88;60.53;76118.47;5035352;28;20060;-82
2022/07/18 01:45:00;;;;;;;3.45;1.50;;;;;;;-148.88;60.16;76126.59;5034715;28;20045;-85
2022/07/18 01:47:25;;;;;;;7.75;1.70;;;;;;;-148.88;60.37;76122.56;5034966;28;20425;-85
2022/07/18 01:49:50;;;;;;;5.78;2.00;;;;;;;-148.88;60.50;76112.41;5034382;28;20029;-85
2022/07/18 01:52:16;;;;;;;7.85;2.20;;;;;;;-148.88;60.69;76122.56;5035039;28;20026;-85
2022/07/18 01:54:42;;;;;;;5.43;1.80;;;;;;;-148.88;60.71;76118.47;5034777;28;20022;-85
2022/07/18 01:57:07;;;;;;;6.68;1.90;;;;;;;-148.88;60.23;76122.56;5034952;28;20239;-85
2022/07/18 01:59:33;;;;;;;4.95;2.10;;;;;;;-148.88;61.08;76122.56;5034723;28;20029;-85
2022/07/18 02:01:59;;;;;;;3.50;1.75;;;;;;;-148.88;61.18;76130.69;5034814;28;20064;-85
2022/07/18 02:04:59;;;;;;;5.15;2.20;;;;;;;-148.88;61.46;76130.69;5034472;28;20024;-85
2022/07/18 02:07:10;;;;;;;3.95;2.13;;;;;;;-148.88;61.04;76134.72;5034540;28;20120;-85
2022/07/18 02:09:35;;;;;;;3.92;2.17;;;;;;;-148.88;61.62;76136.78;5033262;28;20049;-85
2022/07/18 02:12:00;;;;;;;6.60;2.40;;;;;;;-148.88;61.96;76142.88;5034909;28;20024;-85
2022/07/18 02:14:25;;;;;;;5.20;2.55;;;;;;;-148.88;61.96;76144.91;5033359;28;20056;-85
2022/07/18 02:16:51;;;;;;;5.47;2.25;;;;;;;-148.88;62.15;76144.91;5034856;28;20079;-82
2022/07/18 02:19:16;;;;;;;3.72;1.92;;;;;;;-148.88;61.95;76142.88;5034564;28;20094;-82
2022/07/18 02:21:41;;;;;;;4.53;1.95;;;;;;;-148.88;62.52;76146.94;5034594;28;20032;-82
2022/07/18 02:24:07;;;;;;;4.10;2.00;;;;;;;-148.88;62.23;76148.97;5034495;28;20340;-82
2022/07/18 02:26:32;;;;;;;4.20;2.00;;;;;;;-148.88;62.49;76151.00;5034462;28;20036;-82
2022/07/18 02:28:57;;;;;;;5.22;2.03;;;;;;;-148.88;62.40;76159.13;5032892;28;20458;-82
2022/07/18 02:31:23;;;;;;;6.20;1.90;;;;;;;-148.88;62.49;76157.09;5034198;28;20032;-82
2022/07/18 02:33:48;;;;;;;3.92;1.88;;;;;;;-148.88;62.40;76159.13;5033958;28;20017;-85
2022/07/18 02:36:14;;;;;;;4.63;1.80;;;;;;;-148.88;62.02;76167.25;5035065;28;20095;-85
2022/07/18 02:38:42;;;;;;;4.35;2.00;;;;;;;-148.88;62.24;76167.25;5034574;28;20037;-85
2022/07/18 02:41:07;;;;;;;4.07;1.80;;;;;;;-148.88;62.45;76161.16;5033959;28;20029;-85
2022/07/18 02:43:33;;;;;;;3.15;1.90;;;;;;;-148.88;62.80;76191.63;5034324;28;20025;-85
2022/07/18 02:45:58;;;;;;;3.72;1.77;;;;;;;-148.88;65.80;76228.19;5156415;22;20128;-87
2022/07/18 02:48:26;;;;;;;4.07;1.80;;;;;;;-148.88;66.91;76232.25;5033817;28;20055;-87
2022/07/18 02:50:52;;;;;;;4.88;1.90;;;;;;;-148.88;66.69;76228.19;5035050;28;20030;-87
2022/07/18 02:53:19;;;;;;;4.15;1.90;;;;;;;-148.88;66.88;76228.19;5033313;28;20578;-87
2022/07/18 02:55:44;;;;;;;6.10;2.00;;;;;;;-148.88;67.03;76224.13;5033662;28;20022;-87
2022/07/18 02:58:09;;;;;;;5.18;2.10;;;;;;;-148.88;66.42;76224.13;5033843;28;20184;-88
2022/07/18 03:00:35;;;;;;;4.88;2.08;;;;;;;-148.88;66.46;76220.06;5033870;28;20082;-87
2022/07/18 03:03:00;;;;;;;4.97;2.13;;;;;;;-148.88;65.95;76216.00;5034483;28;20033;-87
2022/07/18 03:05:28;;;;;;;4.93;2.17;;;;;;;-148.88;66.61;76216.00;5034116;28;20057;-86
2022/07/18 03:07:54;;;;;;;4.93;2.28;;;;;;;-148.88;67.14;76226.16;5033901;28;20556;-88
2022/07/18 03:10:19;;;;;;;3.47;2.10;;;;;;;-148.88;67.56;76228.19;5037090;28;20057;-87
2022/07/18 03:12:44;;;;;;;7.97;2.35;;;;;;;-148.88;68.02;76232.25;5039642;28;20167;-87
2022/07/18 03:15:10;;;;;;;3.65;2.28;;;;;;;-148.88;67.51;76236.31;5046031;28;20033;-88
2022/07/18 03:17:38;;;;;;;4.22;1.90;;;;;;;-148.88;68.10;76236.31;5039905;28;20029;-87
2022/07/18 03:20:04;;;;;;;6.85;2.38;;;;;;;-148.88;68.17;76236.31;5035942;28;20530;-87
2022/07/18 03:22:36;;;;;;;3.33;2.30;;;;;;;-148.88;68.80;76244.44;5040686;28;20022;-88
2022/07/18 03:25:01;;;;;;;4.15;2.78;;;;;;;-148.88;69.29;76252.56;5045649;28;20432;-87
2022/07/18 03:27:26;;;;;;;5.07;2.47;;;;;;;-148.88;70.25;76252.56;5045491;28;20029;-88
2022/07/18 03:29:52;;;;;;;5.85;2.70;;;;;;;-148.88;70.56;76248.50;5045717;28;20459;-87
2022/07/18 03:32:17;;;;;;;3.85;2.53;;;;;;;-148.88;70.53;76248.50;5045898;28;20392;-87
2022/07/18 03:34:42;;;;;;;5.47;2.47;;;;;;;-148.88;71.07;76250.53;5043997;28;20024;-88
2022/07/18 03:37:08;;;;;;;4.35;2.30;;;;;;;-148.88;70.77;76256.63;5043996;28;20040;-86
2022/07/18 03:39:33;;;;;;;4.22;2.17;;;;;;;-148.88;70.19;76256.63;5037675;28;20476;-87
2022/07/18 03:41:58;;;;;;;5.47;2.30;;;;;;;-148.88;69.87;76250.53;5033002;28;20021;-88
2022/07/18 03:44:23;;;;;;;3.95;1.85;;;;;;;-148.88;69.31;76248.50;5033360;28;20494;-87
2022/07/18 03:46:51;;;;;;;5.13;2.03;;;;;;;-148.88;68.96;76252.56;5034454;28;20030;-86
2022/07/18 03:49:16;;;;;;;6.50;2.28;;;;;;;-148.88;69.53;76252.56;5032642;28;20021;-87
2022/07/18 03:51:42;;;;;;;4.22;1.90;;;;;;;-148.88;69.08;76252.56;5032641;28;20048;-87
2022/07/18 03:54:10;;;;;;;3.47;2.00;;;;;;;-148.88;68.95;76250.53;5032678;28;20124;-87
2022/07/18 03:56:36;;;;;;;5.07;2.10;;;;;;;-148.88;68.98;76250.53;5034142;28;20037;-86
2022/07/18 03:59:08;;;;;;;5.32;2.08;;;;;;;-148.88;68.92;76252.56;5033991;28;20021;-88
2022/07/18 04:01:33;;;;;;;6.00;1.83;;;;;;;-148.88;68.56;76248.50;5033420;28;20391;-87
2022/07/18 04:03:58;;;;;;;4.55;1.92;;;;;;;-148.88;68.59;76248.50;5032672;28;20022;-87
2022/07/18 04:06:24;;;;;;;5.97;2.33;;;;;;;-148.88;68.26;76254.59;5031629;28;20030;-87
2022/07/18 04:08:49;;;;;;;3.72;1.80;;;;;;;-148.88;68.16;76244.44;5032503;28;20026;-87
2022/07/18 04:11:23;;;;;;;4.72;2.22;;;;;;;-148.88;68.36;76238.34;5033272;28;20025;-86
2022/07/18 04:13:52;;;;;;;3.97;1.80;;;;;;;-148.88;67.69;76250.53;5034129;28;20026;-87
2022/07/18 04:16:17;;;;;;;7.22;2.63;;;;;;;-148.88;70.18;76258.66;5032787;28;20605;-86
2022/07/18 04:18:42;;;;;;;5.47;2.45;;;;;;;-148.88;69.66;76254.59;5032640;28;20472;-86
2022/07/18 04:21:17;;;;;;;6.05;2.35;;;;;;;-148.88;69.97;76254.59;5032628;28;20036;-87
2022/07/18 04:23:43;;;;;;;5.43;2.45;;;;;;;-148.88;70.36;76244.44;5033443;28;20077;-86
2022/07/18 04:26:09;;;;;;;3.88;2.70;;;;;;;-148.88;70.73;76236.31;5032101;28;20026;-86
2022/07/18 04:28:34;;;;;;;5.03;2.17;;;;;;;-148.88;70.96;76232.25;5032168;28;20027;-86
2022/07/18 04:31:00;;;;;;;4.22;2.50;;;;;;;-148.88;71.16;76232.25;5031601;28;20442;-87
2022/07/18 04:33:25;;;;;;;5.47;2.88;;;;;;;-148.88;70.98;76232.25;5032027;28;20021;-86
2022/07/18 04:35:50;;;;;;;7.93;3.08;;;;;;;-148.88;71.73;76232.25;5032109;28;20075;-87
2022/07/18 04:38:16;;;;;;;6.65;2.88;;;;;;;-148.88;72.60;76236.31;5034146;28;20404;-88
2022/07/18 04:40:41;;;;;;;6.18;3.35;;;;;;;-148.88;72.92;76220.06;5032614;28;20030;-87
2022/07/18 04:43:07;;;;;;;7.72;3.42;;;;;;;-148.88;75.37;76240.38;5031987;28;20021;-87
2022/07/18 04:45:35;;;;;;;6.32;3.30;;;;;;;-148.88;76.87;76232.25;5031991;28;20030;-86
2022/07/18 04:48:03;;;;;;;4.97;2.97;;;;;;;-148.88;76.25;76222.09;5031894;28;20029;-86
2022/07/18 04:50:29;;;;;;;8.68;3.30;;;;;;;-148.88;77.74;76218.03;5031931;28;20033;-87
2022/07/18 04:52:55;;;;;;;8.18;3.20;;;;;;;-148.88;78.33;76211.94;5031720;28;20115;-86
2022/07/18 04:55:21;;;;;;;5.78;2.90;;;;;;;-148.88;79.09;76216.00;5032075;28;20022;-86
2022/07/18 04:57:47;;;;;;;6.63;3.05;;;;;;;-148.88;78.60;76203.81;5031705;28;20036;-87
2022/07/18 05:00:22;;;;;;;6.40;3.15;;;;;;;-148.88;78.36;76191.63;5032940;28;20029;-88
2022/07/18 05:02:50;;;;;;;4.30;2.80;;;;;;;-148.88;78.36;76191.63;5033033;28;20051;-87
2022/07/18 05:05:20;;;;;;;5.75;3.15;;;;;;;-148.88;78.23;76189.59;5031702;28;20040;-86
2022/07/18 05:07:46;;;;;;;6.95;3.40;;;;;;;-148.88;79.09;76181.47;5032880;28;20041;-87
2022/07/18 05:10:22;;;;;;;6.85;3.05;;;;;;;-148.88;78.52;76175.38;5031711;28;20025;-87
2022/07/18 05:12:50;;;;;;;6.65;3.20;;;;;;;-148.88;77.83;76171.31;5033175;28;20021;-87
2022/07/18 05:15:20;;;;;;;5.88;2.78;;;;;;;-148.88;77.93;76171.31;5031693;28;20025;-87
2022/07/18 05:17:46;;;;;;;4.90;2.78;;;;;;;-148.88;77.93;76171.31;5036021;28;20037;-87
2022/07/18 05:20:15;;;;;;;6.00;2.78;;;;;;;-148.88;77.74;76167.25;5035383;28;20026;-87
2022/07/18 05:22:41;;;;;;;5.55;3.10;;;;;;;-148.88;78.09;76177.41;5035143;28;20021;-87
2022/07/18 05:25:08;;;;;;;6.13;3.00;;;;;;;-148.88;78.20;76171.31;5036088;28;20033;-87
2022/07/18 05:27:34;;;;;;;5.57;3.60;;;;;;;-148.88;77.58;76171.31;5035467;28;20407;-87
2022/07/18 05:30:00;;;;;;;5.50;3.15;;;;;;;-148.88;77.64;76161.16;5035913;28;20036;-86
2022/07/18 05:32:26;;;;;;;6.60;3.10;;;;;;;-148.88;77.80;76161.16;5035458;28;20040;-87
2022/07/18 05:34:51;;;;;;;7.70;2.80;;;;;;;-148.88;77.61;76146.94;5034835;28;20018;-86
2022/07/18 05:37:17;;;;;;;7.55;3.25;;;;;;;-148.88;77.06;76138.81;5036345;28;20392;-86
2022/07/18 05:39:42;;;;;;;5.88;2.65;;;;;;;-148.88;75.11;76126.59;5034925;28;20033;-85
2022/07/18 05:42:10;;;;;;;5.57;2.85;;;;;;;-148.88;73.82;76118.47;5034787;28;20123;-87
2022/07/18 05:44:39;;;;;;;5.28;2.90;;;;;;;-148.88;73.65;76102.22;5036168;28;20029;-88
2022/07/18 05:47:04;;;;;;;5.13;2.70;;;;;;;-148.88;73.72;76090.03;5036117;28;20037;-87
2022/07/18 05:49:30;;;;;;;5.35;2.80;;;;;;;-148.88;71.81;76071.75;5034640;28;20060;-85
2022/07/18 05:51:55;;;;;;;6.82;2.63;;;;;;;-148.88;70.91;76053.47;5035687;28;20028;-88
2022/07/18 05:54:20;;;;;;;4.25;2.63;;;;;;;-148.88;70.58;76047.38;5034967;28;20449;-88
2022/07/18 05:56:47;;;;;;;6.28;2.75;;;;;;;-148.88;70.66;76029.09;5040242;28;20022;-88
2022/07/18 05:59:13;;;;;;;5.38;2.50;;;;;;;-148.88;70.74;76008.78;5034790;28;20399;-87
2022/07/18 06:01:39;;;;;;;6.30;2.65;;;;;;;-148.88;70.41;76004.72;5034556;28;20025;-86
2022/07/18 06:04:05;;;;;;;6.47;2.97;;;;;;;-148.88;70.98;75992.53;5034270;28;20018;-87
2022/07/18 06:06:30;;;;;;;4.60;2.58;;;;;;;-148.88;71.12;75980.34;5035511;28;20391;-86
2022/07/18 06:08:55;;;;;;;6.63;2.70;;;;;;;-148.88;70.48;75960.03;5035184;28;20025;-87
2022/07/18 06:11:21;;;;;;;6.55;3.17;;;;;;;-148.88;70.59;75955.97;5034337;28;20033;-87
2022/07/18 06:13:46;;;;;;;7.88;2.90;;;;;;;-148.88;71.45;75947.84;5034707;28;20110;-87
2022/07/18 06:16:11;;;;;;;10.13;3.05;;;;;;;-148.88;71.29;75923.47;5034095;28;20026;-87
2022/07/18 06:18:37;;;;;;;5.38;2.90;;;;;;;-148.88;70.55;75903.16;5035484;28;20029;-87
2022/07/18 06:21:10;;;;;;;7.03;2.65;;;;;;;-148.88;70.15;75903.16;5033673;28;20025;-87
2022/07/18 06:23:36;;;;;;;6.78;2.53;;;;;;;-148.88;69.68;75893.00;5034878;28;20026;-87
2022/07/18 06:26:02;;;;;;;5.40;3.13;;;;;;;-148.88;70.18;75884.88;5033498;28;20029;-87
2022/07/18 06:28:28;;;;;;;4.95;3.00;;;;;;;-148.88;70.64;75862.53;5034341;28;20558;-87
2022/07/18 06:30:54;;;;;;;8.25;3.05;;;;;;;-148.88;69.11;75840.19;5034603;28;20037;-87
2022/07/18 06:33:19;;;;;;;8.15;2.53;;;;;;;-148.88;68.34;75825.97;5034636;28;20118;-86
2022/07/18 06:35:46;;;;;;;5.97;2.90;;;;;;;-148.88;68.71;75819.88;5034649;28;20021;-87
2022/07/18 06:38:12;;;;;;;8.02;2.22;;;;;;;-148.88;68.05;75807.69;5033429;28;20100;-87
2022/07/18 06:40:40;;;;;;;6.00;1.95;;;;;;;-148.88;65.81;75797.53;5033128;28;20051;-87
2022/07/18 06:43:06;;;;;;;4.90;2.28;;;;;;;-148.88;64.75;75777.22;5033437;28;20400;-86
2022/07/18 06:45:32;;;;;;;5.78;2.20;;;;;;;-148.88;63.43;75748.78;5032554;28;20471;-86
2022/07/18 06:48:16;;;;;;;3.88;2.10;;;;;;;-148.88;62.78;75730.50;5033221;28;20030;-88
2022/07/18 06:50:44;;;;;;;4.00;1.98;;;;;;;-148.88;62.77;75722.38;5033844;28;20439;-87
2022/07/18 06:53:19;;;;;;;4.30;2.00;;;;;;;-148.88;62.63;75712.22;5031922;28;20445;-87
2022/07/18 06:55:45;;;;;;;6.30;2.10;;;;;;;-148.88;62.73;75691.91;5032377;28;20022;-88
2022/07/18 06:58:10;;;;;;;6.70;2.13;;;;;;;-148.88;62.20;75667.53;5033245;28;20025;-87
2022/07/18 07:00:35;;;;;;;6.55;2.15;;;;;;;-148.88;62.61;75655.34;5033003;28;20069;-88
2022/07/18 07:03:01;;;;;;;4.53;1.98;;;;;;;-148.88;59.94;75620.81;5031983;28;20024;-88
2022/07/18 07:05:29;;;;;;;4.43;1.85;;;;;;;-148.88;59.92;75610.66;5032254;28;20044;-85
2022/07/18 07:08:04;;;;;;;5.70;2.03;;;;;;;-148.88;58.83;75596.44;5032571;28;20025;-88
2022/07/18 07:10:32;;;;;;;5.15;1.90;;;;;;;-148.88;57.76;75582.22;5032371;28;20494;-88
2022/07/18 07:12:58;;;;;;;6.47;1.80;;;;;;;-148.88;55.58;75574.13;5033502;28;20026;-88
2022/07/18 07:15:23;;;;;;;2.97;1.55;;;;;;;-148.88;56.56;75555.84;5033347;28;20037;-88
2022/07/18 07:17:50;;;;;;;2.83;1.55;;;;;;;-148.88;56.02;75547.72;5032077;28;20368;-87
2022/07/18 07:20:21;;;;;;;6.38;1.80;;;;;;;-148.88;56.19;75549.75;5031877;28;20052;-87
2022/07/18 07:22:51;;;;;;;7.15;1.60;;;;;;;-148.88;53.99;75533.50;5033497;28;20030;-87
2022/07/18 07:25:21;;;;;;;4.10;1.52;;;;;;;-148.88;53.12;75511.16;5033600;28;20025;-87
2022/07/18 07:27:50;;;;;;;5.95;1.40;;;;;;;-148.88;51.10;75498.97;5031943;28;20025;-88
2022/07/18 07:30:16;;;;;;;6.57;1.55;;;;;;;-148.88;51.17;75478.66;5033284;28;20025;-87
2022/07/18 07:32:45;;;;;;;3.70;1.40;;;;;;;-148.88;50.57;75468.50;5033637;28;20040;-87
2022/07/18 07:35:12;;;;;;;6.40;1.70;;;;;;;-148.88;49.42;75448.19;5032033;28;20018;-86
2022/07/18 07:37:39;;;;;;;8.05;1.60;;;;;;;-148.88;49.93;75425.84;5031596;28;20032;-88
2022/07/18 07:40:09;;;;;;;4.72;1.60;;;;;;;-148.88;48.42;75391.31;5032259;28;20025;-86
2022/07/18 07:42:34;;;;;;;5.82;1.80;;;;;;;-148.88;48.22;75377.09;5031435;28;20026;-88
2022/07/18 07:49:47;;;;;;;6.90;1.65;;;;;;;-148.88;48.05;75334.44;5070628;28;20132;-77
2022/07/18 07:52:13;;;;;;;8.45;1.73;;;;;;;-148.88;46.92;75338.50;5070484;28;20045;-77
2022/07/18 07:54:39;;;;;;;7.78;1.80;;;;;;;-148.88;47.95;75326.31;5069374;28;20017;-77
2022/07/18 07:57:05;;;;;;;9.02;2.05;;;;;;;-148.88;47.91;75310.06;5069147;28;20029;-77
2022/07/18 07:59:31;;;;;;;8.90;1.70;;;;;;;-148.88;48.11;75281.66;5070432;28;20086;-77
2022/07/18 08:01:57;;;;;;;4.97;1.80;;;;;;;-148.88;47.94;75255.25;5070328;28;20025;-77
2022/07/18 08:04:23;;;;;;;6.90;1.30;;;;;;;-148.88;46.84;75228.84;5070170;28;20367;-77
2022/07/18 08:06:48;;;;;;;2.83;1.42;;;;;;;-148.88;45.65;75184.16;5070146;28;20023;-77
2022/07/18 08:09:13;;;;;;;5.85;1.48;;;;;;;-148.88;46.92;75176.03;5069684;28;20021;-77
2022/07/18 08:11:38;;;;;;;6.30;1.42;;;;;;;-148.88;45.13;75147.59;5069797;28;20024;-77
2022/07/18 08:14:04;;;;;;;5.80;1.50;;;;;;;-148.88;44.76;75155.72;5069622;28;20094;-77
2022/07/18 08:16:29;;;;;;;5.80;1.70;;;;;;;-148.88;44.67;75143.53;5069736;28;20025;-77
2022/07/18 08:18:54;;;;;;;4.30;1.17;;;;;;;-148.88;45.03;75139.47;5069463;28;20059;-77
2022/07/18 08:21:19;;;;;;;5.85;1.35;;;;;;;-148.88;42.97;75094.81;5069268;28;20397;-77
2022/07/18 08:23:47;;;;;;;4.40;1.40;;;;;;;-148.88;43.26;75102.91;5068217;28;20029;-77
2022/07/18 08:26:12;;;;;;;4.30;1.40;;;;;;;-148.88;44.12;75078.56;5069156;28;20017;-77
2022/07/18 08:28:37;;;;;;;3.53;1.10;;;;;;;-148.88;43.74;75086.69;5067927;28;20052;-77
2022/07/18 08:31:02;;;;;;;3.28;1.23;;;;;;;-148.88;42.54;75062.31;5068102;28;20088;-77
2022/07/18 08:33:28;;;;;;;7.45;1.30;;;;;;;-148.88;42.61;75035.91;5068958;28;20382;-77
2022/07/18 08:35:53;;;;;;;4.13;1.05;;;;;;;-148.88;41.00;75027.78;5069046;28;20390;-77
2022/07/18 08:38:18;;;;;;;4.75;1.40;;;;;;;-148.88;39.79;74993.25;5069213;28;20031;-77
2022/07/18 08:40:47;;;;;;;3.35;1.17;;;;;;;-148.88;39.38;74985.13;5069159;28;20036;-77
2022/07/18 08:43:12;;;;;;;2.78;1.20;;;;;;;-148.88;39.25;74964.81;5068866;28;20363;-77
2022/07/18 08:45:37;;;;;;;7.53;1.63;;;;;;;-148.88;40.36;74936.41;5069413;22;20076;-79
2022/07/18 08:48:03;;;;;;;4.60;1.10;;;;;;;-148.88;39.03;74912.03;5032621;28;20032;-79
2022/07/18 08:50:30;;;;;;;3.72;1.30;;;;;;;-148.88;40.33;74916.09;5034528;28;20041;-79
2022/07/18 08:52:56;;;;;;;4.40;1.13;;;;;;;-148.88;37.80;74895.78;5033325;28;20453;-79
2022/07/18 08:55:21;;;;;;;2.35;1.20;;;;;;;-148.88;38.72;74912.03;5029770;28;20046;-79
2022/07/18 08:57:47;;;;;;;3.20;1.15;;;;;;;-148.88;38.84;74881.56;5020301;28;20113;-79
2022/07/18 09:00:12;;;;;;;3.05;1.40;;;;;;;-148.88;37.39;74873.44;5016437;28;20033;-79
2022/07/18 09:02:38;;;;;;;4.20;1.35;;;;;;;-148.88;36.23;74863.28;5018188;28;20022;-78
2022/07/18 09:05:04;;;;;;;3.55;1.35;;;;;;;-148.88;38.14;74830.78;5018519;28;20053;-79
2022/07/18 09:07:37;;;;;;;3.30;1.10;;;;;;;-148.88;35.36;74812.53;5018423;28;20025;-79
2022/07/18 09:10:05;;;;;;;3.15;1.00;;;;;;;-148.88;35.02;74786.13;5018597;28;20026;-79
2022/07/18 09:12:31;;;;;;;4.38;1.20;;;;;;;-148.88;35.29;74786.13;5017966;28;20048;-79
2022/07/18 09:15:03;;;;;;;3.53;1.20;;;;;;;-148.88;36.86;74771.91;5019060;28;20022;-79
2022/07/18 09:17:29;;;;;;;2.85;1.00;;;;;;;-148.88;35.99;74765.81;5020341;28;20046;-79
2022/07/18 09:20:03;;;;;;;3.92;1.30;;;;;;;-148.88;35.82;74737.38;5019347;28;20029;-79
2022/07/18 09:22:34;;;;;;;5.35;1.40;;;;;;;-148.88;33.33;74735.34;5019613;28;20124;-78
2022/07/18 09:25:14;;;;;;;2.28;1.17;;;;;;;-148.88;33.11;74690.69;5019108;28;20022;-79
2022/07/18 09:27:45;;;;;;;3.92;1.27;;;;;;;-148.88;31.63;74639.91;5020088;28;20030;-79
2022/07/18 09:30:21;;;;;;;3.65;1.10;;;;;;;-148.88;33.79;74672.41;5019816;28;20026;-79
2022/07/18 09:32:51;;;;;;;4.90;1.58;;;;;;;-148.88;33.85;74639.91;5014776;28;20061;-79
2022/07/18 09:35:22;;;;;;;3.97;1.40;;;;;;;-148.88;33.52;74648.03;5016368;28;20032;-79
2022/07/18 09:37:57;;;;;;;2.72;1.17;;;;;;;-148.88;33.35;74625.69;5017035;28;20034;-79
2022/07/18 09:40:26;;;;;;;5.78;1.20;;;;;;;-148.88;34.19;74597.25;5016481;28;20028;-79
2022/07/18 09:42:54;;;;;;;2.53;1.25;;;;;;;-148.88;34.55;74550.56;5016694;28;20487;-79
2022/07/18 09:45:28;;;;;;;3.17;1.25;;;;;;;-148.88;34.94;74505.88;5017057;28;20112;-79
2022/07/18 09:48:00;;;;;;;3.10;1.20;;;;;;;-148.88;34.04;74493.72;5018195;28;20025;-79
2022/07/18 09:50:36;;;;;;;3.35;1.25;;;;;;;-148.88;31.67;74489.66;5017770;28;20062;-79
2022/07/18 09:53:13;;;;;;;3.90;1.10;;;;;;;-148.88;32.92;74481.53;5019697;28;20546;-79
2022/07/18 09:55:47;;;;;;;2.22;1.20;;;;;;;-148.88;31.36;74491.69;5019176;28;20029;-79
2022/07/18 09:58:16;;;;;;;3.20;1.20;;;;;;;-148.88;31.53;74463.25;5020049;28;20067;-79
2022/07/18 10:00:41;;;;;;;3.05;1.15;;;;;;;-148.88;31.78;74430.75;5019707;28;20056;-79
2022/07/18 10:03:08;;;;;;;3.53;1.10;;;;;;;-148.88;30.77;74447.00;5018933;28;20025;-78
2022/07/18 10:05:37;;;;;;;6.25;1.15;;;;;;;-148.88;29.44;74457.16;5018743;28;20029;-79
2022/07/18 10:08:14;;;;;;;6.18;1.30;;;;;;;-148.88;30.60;74404.38;5017703;28;20030;-79
2022/07/18 10:10:42;;;;;;;2.65;0.80;;;;;;;-148.88;30.13;74363.75;5013877;28;20026;-78
2022/07/18 10:13:08;;;;;;;2.40;1.20;;;;;;;-148.88;31.25;74347.50;5015847;28;20096;-79
2022/07/18 10:15:39;;;;;;;4.50;1.35;;;;;;;-148.88;29.58;74347.50;5016312;28;20386;-79
2022/07/18 10:18:06;;;;;;;3.05;0.90;;;;;;;-148.88;29.93;74325.19;5016831;28;20053;-79
2022/07/18 10:20:38;;;;;;;5.43;1.13;;;;;;;-148.88;29.61;74313.00;5017241;28;20025;-79
2022/07/18 10:23:09;;;;;;;2.25;0.98;;;;;;;-148.88;30.35;74278.47;5017055;28;20105;-79
2022/07/18 10:25:36;;;;;;;2.53;0.85;;;;;;;-148.88;28.89;74252.06;5018071;28;20021;-79
2022/07/18 10:28:13;;;;;;;4.32;1.10;;;;;;;-148.88;28.89;74246.00;5017379;28;20026;-79
2022/07/18 10:30:42;;;;;;;2.05;0.98;;;;;;;-148.88;28.24;74217.56;5017297;28;20028;-79
2022/07/18 10:33:47;;;;;;;3.33;1.02;;;;;;;-148.88;27.91;74221.63;5019381;28;20022;-79
2022/07/18 10:36:23;;;;;;;3.13;1.20;;;;;;;-148.88;28.58;74181.00;5018726;28;20048;-79
2022/07/18 10:39:07;;;;;;;4.45;1.05;;;;;;;-148.88;28.24;74136.34;5018038;28;20435;-77
2022/07/18 10:41:39;;;;;;;3.55;1.10;;;;;;;-148.88;27.36;74107.91;5014923;28;20018;-77
2022/07/18 10:44:31;;;;;;;2.83;1.00;;;;;;;-148.88;26.45;74124.16;5014976;28;20481;-77
2022/07/18 10:47:02;;;;;;;2.30;1.00;;;;;;;-148.88;26.94;74136.34;5014640;28;20492;-75
2022/07/18 10:49:49;;;;;;;5.38;1.13;;;;;;;-148.88;28.22;74122.13;5014265;28;20034;-77
2022/07/18 10:52:26;;;;;;;3.38;1.05;;;;;;;-148.88;26.97;74099.78;5013337;28;20018;-77
2022/07/18 10:55:01;;;;;;;5.85;1.33;;;;;;;-148.88;26.86;74083.56;5014532;28;20030;-77
2022/07/18 10:57:27;;;;;;;3.80;1.17;;;;;;;-148.88;26.91;74077.47;5014491;28;20026;-77
2022/07/18 11:00:07;;;;;;;4.20;1.92;;;;;;;-148.88;26.36;74044.97;5013235;28;20395;-77
2022/07/18 11:02:38;;;;;;;4.90;1.20;;;;;;;-148.88;25.75;74067.31;5013142;28;20025;-77
2022/07/18 11:05:23;;;;;;;3.72;1.30;;;;;;;-148.88;26.81;74018.59;5013434;28;20018;-77
2022/07/18 11:08:01;;;;;;;2.13;1.20;;;;;;;-148.88;26.15;73988.13;5013270;28;20030;-77
2022/07/18 11:10:51;;;;;;;3.03;1.98;;;;;;;-148.88;25.64;73982.03;5018378;28;20021;-79
2022/07/18 11:15:55;;;;;;;4.53;1.48;;;;;;;-148.88;26.82;73977.97;5014011;28;20030;-76
2022/07/18 11:18:22;;;;;;;5.38;1.45;;;;;;;-148.88;25.74;74026.72;5013632;28;20026;-76
2022/07/18 11:20:47;;;;;;;5.97;2.10;;;;;;;-148.88;25.17;74044.97;5013328;28;20034;-77
2022/07/18 11:23:24;;;;;;;3.03;1.55;;;;;;;-148.88;25.95;73969.84;5012493;28;20029;-77
2022/07/18 11:25:54;;;;;;;3.08;1.40;;;;;;;-148.88;26.34;73933.31;5013742;28;20025;-76
2022/07/18 11:28:21;;;;;;;6.90;1.70;;;;;;;-148.88;25.79;73943.47;5012361;28;20507;-76
2022/07/18 11:30:59;;;;;;;3.13;1.88;;;;;;;-148.88;25.29;73917.06;5012273;28;20029;-76
2022/07/18 11:33:27;;;;;;;4.00;1.60;;;;;;;-148.88;25.33;73931.28;5013475;28;20073;-76